Time;durP1;ratioP1;P1;durP2;ratioP2;P2;SDS_P1;SDS_P2;PMS_P1;PMS_P2;Temp;Humidity;BMP_temperature;BMP_pressure;BME280_temperature;BME280_humidity;BME280_pressure;Samples;Min_cycle;Max_cycle;Signal;HPM_P1;HPM_P2
2022/03/06 00:02:25;;;;;;;13.80;9.87;;;2.40;87.50;;;;;;5031733;28;20589;-53
2022/03/06 00:04:52;;;;;;;14.90;9.63;;;2.40;87.60;;;;;;5031878;28;20636;-53
2022/03/06 00:07:20;;;;;;;13.40;9.20;;;2.30;87.70;;;;;;5031791;28;20205;-53
2022/03/06 00:09:47;;;;;;;14.63;9.60;;;2.30;88.00;;;;;;5031476;28;20211;-52
2022/03/06 00:12:13;;;;;;;13.27;9.37;;;2.20;87.90;;;;;;5031751;28;20210;-53
2022/03/06 00:14:40;;;;;;;12.93;9.10;;;2.20;88.20;;;;;;5031493;28;20217;-53
2022/03/06 00:17:07;;;;;;;13.43;9.30;;;2.10;88.30;;;;;;5031435;28;20701;-53
2022/03/06 00:19:34;;;;;;;15.87;10.37;;;2.00;88.50;;;;;;5031453;28;20207;-53
2022/03/06 00:22:00;;;;;;;13.57;9.33;;;2.00;88.80;;;;;;5031787;28;20206;-54
2022/03/06 00:24:28;;;;;;;15.63;10.40;;;1.90;89.00;;;;;;5031784;28;20221;-54
2022/03/06 00:26:55;;;;;;;14.47;9.80;;;1.80;89.40;;;;;;5031645;28;20213;-53
2022/03/06 00:29:22;;;;;;;15.77;10.33;;;1.70;89.80;;;;;;5031300;28;20230;-53
2022/03/06 00:31:49;;;;;;;16.23;9.77;;;1.60;90.10;;;;;;5031730;28;20210;-53
2022/03/06 00:34:15;;;;;;;15.43;9.73;;;1.50;90.30;;;;;;5031621;28;20644;-53
2022/03/06 00:36:42;;;;;;;14.20;9.73;;;1.40;90.50;;;;;;5031552;28;20210;-53
2022/03/06 00:39:09;;;;;;;15.03;10.07;;;1.30;90.70;;;;;;5031257;28;20229;-53
2022/03/06 00:41:38;;;;;;;15.50;9.97;;;1.20;90.80;;;;;;5031539;28;20206;-53
2022/03/06 00:44:05;;;;;;;16.37;10.50;;;1.20;91.10;;;;;;5031414;28;20580;-55
2022/03/06 00:46:31;;;;;;;13.63;9.70;;;1.10;91.20;;;;;;5031387;28;20217;-53
2022/03/06 00:48:58;;;;;;;17.67;11.17;;;1.00;91.20;;;;;;5031281;28;20230;-53
2022/03/06 00:51:25;;;;;;;17.30;10.87;;;0.90;91.40;;;;;;5031687;28;20209;-54
2022/03/06 00:53:52;;;;;;;15.53;10.50;;;0.90;91.60;;;;;;5034972;28;20210;-53
2022/03/06 00:56:18;;;;;;;16.60;11.63;;;0.90;91.60;;;;;;5035211;28;20225;-53
2022/03/06 00:58:46;;;;;;;17.50;11.10;;;0.90;91.80;;;;;;5034490;28;20306;-54
2022/03/06 01:01:13;;;;;;;18.87;10.90;;;0.80;91.80;;;;;;5034828;28;20210;-54
2022/03/06 01:03:40;;;;;;;16.60;10.97;;;0.80;91.90;;;;;;5034735;28;20210;-53
2022/03/06 01:06:07;;;;;;;17.70;10.50;;;0.80;92.00;;;;;;5034783;28;20679;-53
2022/03/06 01:08:34;;;;;;;17.67;10.93;;;0.70;92.00;;;;;;5034374;28;20237;-53
2022/03/06 01:11:02;;;;;;;18.07;11.63;;;0.70;92.10;;;;;;5034566;28;20214;-52
2022/03/06 01:13:28;;;;;;;17.67;11.40;;;0.60;92.20;;;;;;5034788;28;20206;-53
2022/03/06 01:15:56;;;;;;;17.67;11.50;;;0.60;92.40;;;;;;5034720;28;20206;-53
2022/03/06 01:18:24;;;;;;;17.80;11.27;;;0.60;92.50;;;;;;5034354;28;20223;-52
2022/03/06 01:20:51;;;;;;;18.20;11.20;;;0.60;92.60;;;;;;5034549;28;20260;-52
2022/03/06 01:23:17;;;;;;;19.33;10.43;;;0.60;92.60;;;;;;5034548;28;20206;-52
2022/03/06 01:25:45;;;;;;;15.47;10.47;;;0.50;92.60;;;;;;5034309;28;20210;-53
2022/03/06 01:28:12;;;;;;;18.23;11.13;;;0.50;92.70;;;;;;5034205;28;20226;-54
2022/03/06 01:30:38;;;;;;;16.60;10.83;;;0.50;92.90;;;;;;5034553;28;20222;-52
2022/03/06 01:33:06;;;;;;;16.23;10.83;;;0.50;93.00;;;;;;5034446;28;20213;-53
2022/03/06 01:35:33;;;;;;;17.17;10.67;;;0.50;93.20;;;;;;5034173;28;20206;-52
2022/03/06 01:38:00;;;;;;;16.17;10.90;;;0.50;93.00;;;;;;5033812;28;20318;-54
2022/03/06 01:40:27;;;;;;;18.60;10.37;;;0.40;93.00;;;;;;5034331;28;20210;-53
2022/03/06 01:42:54;;;;;;;18.17;10.27;;;0.50;93.00;;;;;;5034361;28;20876;-53
2022/03/06 01:45:23;;;;;;;16.13;9.90;;;0.50;92.90;;;;;;5034101;28;20244;-53
2022/03/06 01:47:51;;;;;;;15.13;10.17;;;0.50;93.10;;;;;;5033965;28;20233;-52
2022/03/06 01:50:21;;;;;;;16.47;9.93;;;0.50;93.10;;;;;;5033934;28;20210;-53
2022/03/06 01:52:50;;;;;;;16.83;10.53;;;0.40;93.00;;;;;;5034305;28;20301;-52
2022/03/06 01:55:18;;;;;;;16.10;10.07;;;0.40;93.10;;;;;;5033923;28;20670;-53
2022/03/06 01:57:47;;;;;;;14.63;9.53;;;0.40;93.20;;;;;;5033417;28;20230;-53
2022/03/06 02:00:17;;;;;;;16.23;10.60;;;0.40;93.30;;;;;;5033815;28;20213;-53
2022/03/06 02:02:44;;;;;;;16.20;10.20;;;0.40;93.30;;;;;;5033809;28;20214;-53
2022/03/06 02:05:12;;;;;;;15.20;9.90;;;0.30;93.20;;;;;;5033505;28;20308;-53
2022/03/06 02:07:40;;;;;;;15.53;10.00;;;0.20;93.40;;;;;;5033730;28;20225;-55
2022/03/06 02:10:09;;;;;;;14.63;10.10;;;0.10;93.60;;;;;;5033715;28;20280;-54
2022/03/06 02:12:36;;;;;;;15.20;9.73;;;0.00;93.70;;;;;;5033995;28;20202;-53
2022/03/06 02:15:08;;;;;;;16.80;9.50;;;0.00;93.80;;;;;;5033516;28;20701;-53
2022/03/06 02:17:37;;;;;;;16.10;9.73;;;-0.10;94.00;;;;;;5033407;28;20236;-53
2022/03/06 02:20:06;;;;;;;15.23;9.87;;;-0.10;94.20;;;;;;5033022;28;20666;-53
2022/03/06 02:22:36;;;;;;;14.30;9.70;;;-0.10;94.20;;;;;;5033411;28;20206;-54
2022/03/06 02:25:06;;;;;;;12.90;8.93;;;-0.20;94.20;;;;;;5033440;28;20202;-53
2022/03/06 02:27:33;;;;;;;13.77;9.27;;;-0.20;94.40;;;;;;5033200;28;20226;-53
2022/03/06 02:29:59;;;;;;;15.80;9.07;;;-0.20;94.50;;;;;;5033066;28;20292;-54
2022/03/06 02:32:26;;;;;;;12.77;8.93;;;-0.20;94.50;;;;;;5033629;28;20213;-53
2022/03/06 02:34:53;;;;;;;14.57;9.30;;;-0.20;94.50;;;;;;5033328;28;20207;-53
2022/03/06 02:37:22;;;;;;;17.67;9.50;;;-0.20;94.50;;;;;;5033097;28;20619;-53
2022/03/06 02:39:50;;;;;;;14.17;9.23;;;-0.20;94.60;;;;;;5032887;28;20202;-53
2022/03/06 02:42:27;;;;;;;14.87;9.10;;;-0.20;94.80;;;;;;5033033;28;20254;-53
2022/03/06 02:44:54;;;;;;;14.07;9.43;;;-0.20;94.90;;;;;;5032692;28;20206;-53
2022/03/06 02:47:21;;;;;;;14.23;9.40;;;-0.30;94.90;;;;;;5032835;28;20206;-53
2022/03/06 02:49:49;;;;;;;16.27;9.30;;;-0.20;94.90;;;;;;5032585;28;20594;-54
2022/03/06 02:52:16;;;;;;;16.43;9.33;;;-0.20;94.90;;;;;;5032814;28;20210;-53
2022/03/06 02:54:42;;;;;;;14.67;9.17;;;-0.20;94.80;;;;;;5032713;28;20260;-53
2022/03/06 02:57:11;;;;;;;14.90;9.00;;;-0.30;94.90;;;;;;5032495;28;20214;-53
2022/03/06 02:59:38;;;;;;;14.53;9.70;;;-0.40;95.00;;;;;;5032387;28;20221;-53
2022/03/06 03:02:05;;;;;;;15.53;10.07;;;-0.40;95.10;;;;;;5032528;28;20202;-53
2022/03/06 03:04:32;;;;;;;13.50;9.27;;;-0.50;95.10;;;;;;5032706;28;20241;-53
2022/03/06 03:06:59;;;;;;;16.30;9.23;;;-0.50;95.20;;;;;;5032620;28;20202;-53
2022/03/06 03:09:26;;;;;;;14.60;9.47;;;-0.50;95.30;;;;;;5032177;28;20234;-53
2022/03/06 03:11:54;;;;;;;14.37;9.63;;;-0.60;95.30;;;;;;5032271;28;20206;-52
2022/03/06 03:14:23;;;;;;;13.90;8.97;;;-0.60;95.40;;;;;;5032186;28;20210;-53
2022/03/06 03:16:50;;;;;;;15.33;9.80;;;-0.70;95.60;;;;;;5032409;28;20202;-52
2022/03/06 03:19:17;;;;;;;16.77;9.30;;;-0.70;95.80;;;;;;5032061;28;20237;-53
2022/03/06 03:21:44;;;;;;;13.70;9.00;;;-0.70;95.90;;;;;;5032243;28;20289;-52
2022/03/06 03:24:11;;;;;;;15.20;9.60;;;-0.70;96.00;;;;;;5032274;28;20256;-53
2022/03/06 03:26:38;;;;;;;13.20;9.20;;;-0.80;96.10;;;;;;5032118;28;20744;-53
2022/03/06 03:29:04;;;;;;;12.90;9.13;;;-0.80;96.20;;;;;;5031926;28;20230;-55
2022/03/06 03:31:32;;;;;;;16.67;9.97;;;-0.80;96.30;;;;;;5032169;28;20213;-53
2022/03/06 03:33:59;;;;;;;15.23;10.23;;;-0.70;96.40;;;;;;5032021;28;20707;-53
2022/03/06 03:36:26;;;;;;;26.07;15.33;;;-0.70;96.40;;;;;;5031997;28;20214;-53
2022/03/06 03:38:53;;;;;;;17.43;10.73;;;-0.70;96.40;;;;;;5031907;28;20222;-53
2022/03/06 03:41:19;;;;;;;23.10;14.27;;;-0.60;96.40;;;;;;5032349;28;20210;-53
2022/03/06 03:43:46;;;;;;;18.13;11.50;;;-0.60;96.40;;;;;;5032397;28;20214;-53
2022/03/06 03:46:13;;;;;;;14.90;9.97;;;-0.50;96.30;;;;;;5032056;28;20206;-53
2022/03/06 03:48:41;;;;;;;17.23;11.23;;;-0.50;96.30;;;;;;5031630;28;20222;-53
2022/03/06 03:51:07;;;;;;;15.67;9.80;;;-0.50;96.40;;;;;;5031971;28;20215;-54
2022/03/06 03:53:34;;;;;;;16.40;10.40;;;-0.60;96.50;;;;;;5031999;28;20213;-53
2022/03/06 03:56:01;;;;;;;13.73;9.67;;;-0.60;96.50;;;;;;5032170;28;20206;-53
2022/03/06 03:58:28;;;;;;;19.10;10.53;;;-0.60;96.50;;;;;;5031543;28;20325;-53
2022/03/06 04:00:55;;;;;;;16.03;9.17;;;-0.60;96.40;;;;;;5031934;28;20210;-53
2022/03/06 04:03:22;;;;;;;18.90;11.30;;;-0.50;96.40;;;;;;5031863;28;20209;-53
2022/03/06 04:05:50;;;;;;;15.90;9.97;;;-0.40;96.40;;;;;;5031775;28;20289;-53
2022/03/06 04:08:17;;;;;;;16.73;9.57;;;-0.40;96.30;;;;;;5031359;28;20284;-53
2022/03/06 04:10:44;;;;;;;14.80;9.97;;;-0.40;96.30;;;;;;5031600;28;20276;-53
2022/03/06 04:13:11;;;;;;;15.43;9.13;;;-0.40;96.30;;;;;;5031552;28;20203;-52
2022/03/06 04:15:38;;;;;;;13.30;9.67;;;-0.40;96.40;;;;;;5031647;28;20202;-53
2022/03/06 04:18:05;;;;;;;16.37;10.57;;;-0.50;96.50;;;;;;5031383;28;20230;-53
2022/03/06 04:20:32;;;;;;;16.83;10.37;;;-0.50;96.60;;;;;;5031473;28;20686;-54
2022/03/06 04:23:00;;;;;;;16.17;9.90;;;-0.50;96.50;;;;;;5031582;28;20280;-53
2022/03/06 04:25:27;;;;;;;15.37;9.50;;;-0.40;96.40;;;;;;5031974;28;20206;-53
2022/03/06 04:27:53;;;;;;;13.83;9.10;;;-0.40;96.50;;;;;;5033992;28;20784;-53
2022/03/06 04:30:20;;;;;;;13.03;9.30;;;-0.40;96.50;;;;;;5035086;28;20637;-55
2022/03/06 04:32:47;;;;;;;17.57;10.67;;;-0.40;96.50;;;;;;5035414;28;20211;-53
2022/03/06 04:35:14;;;;;;;17.50;10.50;;;-0.50;96.50;;;;;;5035122;28;20594;-53
2022/03/06 04:37:40;;;;;;;14.10;9.30;;;-0.50;96.50;;;;;;5035374;28;20233;-54
2022/03/06 04:40:10;;;;;;;14.93;10.03;;;-0.50;96.50;;;;;;5035368;28;20264;-53
2022/03/06 04:42:37;;;;;;;20.07;11.33;;;-0.50;96.50;;;;;;5035472;28;20206;-54
2022/03/06 04:45:04;;;;;;;17.37;10.13;;;-0.60;96.50;;;;;;5036089;28;20674;-53
2022/03/06 04:47:31;;;;;;;18.70;11.10;;;-0.60;96.40;;;;;;5035179;28;20226;-52
2022/03/06 04:49:58;;;;;;;15.50;10.63;;;-0.60;96.40;;;;;;5035028;28;20218;-53
2022/03/06 04:52:25;;;;;;;15.37;10.53;;;-0.60;96.50;;;;;;5035049;28;20241;-53
2022/03/06 04:54:51;;;;;;;16.83;11.10;;;-0.70;96.50;;;;;;5035092;28;20210;-53
2022/03/06 04:57:19;;;;;;;16.30;10.87;;;-0.80;96.60;;;;;;5034755;28;20237;-53
2022/03/06 04:59:46;;;;;;;16.83;11.00;;;-0.80;96.70;;;;;;5034597;28;20203;-53
2022/03/06 05:02:13;;;;;;;18.47;10.63;;;-0.90;96.80;;;;;;5034948;28;20235;-53
2022/03/06 05:04:39;;;;;;;17.43;10.23;;;-1.00;96.90;;;;;;5034944;28;20209;-54
2022/03/06 05:07:06;;;;;;;16.47;10.20;;;-1.10;97.10;;;;;;5034521;28;20210;-53
2022/03/06 05:09:32;;;;;;;13.90;9.83;;;-1.10;97.10;;;;;;5034371;28;20709;-52
2022/03/06 05:11:59;;;;;;;16.67;10.20;;;-1.20;97.30;;;;;;5034660;28;20271;-54
2022/03/06 05:14:27;;;;;;;17.13;10.93;;;-1.40;97.40;;;;;;5034582;28;20207;-52
2022/03/06 05:16:54;;;;;;;16.43;9.87;;;-1.50;97.70;;;;;;5034581;28;20260;-53
2022/03/06 05:19:21;;;;;;;17.00;10.73;;;-1.50;97.90;;;;;;5034485;28;20226;-53
2022/03/06 05:21:47;;;;;;;17.13;10.50;;;-1.50;98.00;;;;;;5034718;28;20225;-54
2022/03/06 05:24:14;;;;;;;17.90;11.40;;;-1.50;98.10;;;;;;5034654;28;20581;-53
2022/03/06 05:26:41;;;;;;;16.63;10.10;;;-1.40;98.20;;;;;;5034640;28;20206;-53
2022/03/06 05:29:08;;;;;;;16.60;10.60;;;-1.40;98.10;;;;;;5034266;28;20230;-55
2022/03/06 05:31:36;;;;;;;16.80;10.40;;;-1.40;98.10;;;;;;5034198;28;20210;-53
2022/03/06 05:34:02;;;;;;;16.73;10.20;;;-1.30;98.10;;;;;;5034795;28;20206;-53
2022/03/06 05:36:29;;;;;;;15.73;9.93;;;-1.20;98.20;;;;;;5034780;28;20206;-53
2022/03/06 05:38:56;;;;;;;18.60;10.77;;;-1.10;98.10;;;;;;5034191;28;20237;-54
2022/03/06 05:41:22;;;;;;;18.63;11.00;;;-1.00;98.00;;;;;;5035083;28;20209;-53
2022/03/06 05:43:49;;;;;;;16.73;10.73;;;-0.90;98.00;;;;;;5034845;28;20207;-54
2022/03/06 05:46:16;;;;;;;17.63;11.27;;;-0.80;97.70;;;;;;5034388;28;20214;-54
2022/03/06 05:48:44;;;;;;;16.93;10.93;;;-0.70;97.60;;;;;;5034004;28;20653;-53
2022/03/06 05:51:11;;;;;;;20.13;11.80;;;-0.60;97.40;;;;;;5034080;28;20233;-53
2022/03/06 05:53:37;;;;;;;19.70;11.60;;;-0.60;97.30;;;;;;5033941;28;20635;-53
2022/03/06 05:56:05;;;;;;;17.93;11.27;;;-0.60;97.30;;;;;;5034055;28;20210;-53
2022/03/06 05:58:32;;;;;;;19.43;10.67;;;-0.60;97.30;;;;;;5058798;23;20241;-59
2022/03/06 06:00:58;;;;;;;15.47;10.27;;;-0.60;97.40;;;;;;5045058;28;21439;-57
2022/03/06 06:03:25;;;;;;;15.77;10.40;;;-0.70;97.40;;;;;;5053962;28;20209;-58
2022/03/06 06:05:53;;;;;;;17.27;10.77;;;-0.80;97.50;;;;;;5053633;28;20237;-58
2022/03/06 06:08:20;;;;;;;16.47;10.67;;;-0.90;97.50;;;;;;5053089;28;20709;-58
2022/03/06 06:10:47;;;;;;;15.77;10.10;;;-1.00;97.70;;;;;;5053384;28;20225;-58
2022/03/06 06:13:14;;;;;;;17.67;11.00;;;-1.10;97.80;;;;;;5053213;28;20255;-58
2022/03/06 06:15:43;;;;;;;14.80;10.20;;;-1.10;97.90;;;;;;5053371;28;20209;-58
2022/03/06 06:18:09;;;;;;;19.00;11.37;;;-1.10;98.00;;;;;;5053046;28;20226;-57
2022/03/06 06:20:36;;;;;;;18.03;11.83;;;-1.20;98.20;;;;;;5053143;28;20213;-58
2022/03/06 06:23:05;;;;;;;15.80;10.47;;;-1.20;98.20;;;;;;5053289;28;20209;-57
2022/03/06 06:25:32;;;;;;;19.97;11.63;;;-1.10;98.20;;;;;;5053150;28;20209;-57
2022/03/06 06:27:58;;;;;;;17.23;10.67;;;-1.00;98.30;;;;;;5052805;28;20237;-58
2022/03/06 06:30:25;;;;;;;14.57;9.97;;;-1.00;98.30;;;;;;5052895;28;20316;-56
2022/03/06 06:32:52;;;;;;;15.37;9.73;;;-0.90;98.30;;;;;;5053214;28;20202;-58
2022/03/06 06:35:18;;;;;;;18.00;10.97;;;-0.90;98.10;;;;;;5052982;28;20202;-57
2022/03/06 06:37:45;;;;;;;16.77;11.17;;;-0.80;98.20;;;;;;5052758;28;20252;-58
2022/03/06 06:40:13;;;;;;;16.33;11.27;;;-0.70;98.20;;;;;;5052592;28;20212;-58
2022/03/06 06:42:40;;;;;;;16.87;11.00;;;-0.60;98.10;;;;;;5052911;28;20205;-57
2022/03/06 06:45:07;;;;;;;16.90;10.50;;;-0.50;98.00;;;;;;5052835;28;20259;-58
2022/03/06 06:47:34;;;;;;;18.33;11.00;;;-0.30;98.30;;;;;;5052798;28;20206;-60
2022/03/06 06:50:00;;;;;;;16.30;10.63;;;0.10;98.40;;;;;;5051978;28;20230;-58
2022/03/06 06:52:27;;;;;;;17.37;9.87;;;0.90;97.90;;;;;;5053041;28;20227;-58
2022/03/06 06:54:54;;;;;;;17.60;10.93;;;1.80;96.60;;;;;;5052991;28;20208;-57
2022/03/06 06:57:22;;;;;;;15.47;9.83;;;2.70;95.40;;;;;;5052556;28;20210;-57
2022/03/06 06:59:48;;;;;;;15.47;10.20;;;3.80;93.90;;;;;;5052140;28;20263;-57
2022/03/06 07:02:15;;;;;;;13.73;9.63;;;4.70;92.60;;;;;;5052925;28;20202;-58
2022/03/06 07:04:42;;;;;;;13.17;9.50;;;5.50;92.00;;;;;;5052596;28;20640;-57
2022/03/06 07:07:08;;;;;;;14.80;9.73;;;6.30;90.30;;;;;;5052295;28;20627;-57
2022/03/06 07:09:35;;;;;;;16.20;10.50;;;7.10;89.30;;;;;;5051918;28;20232;-57
2022/03/06 07:12:03;;;;;;;12.07;9.30;;;7.70;86.80;;;;;;5052503;28;20255;-57
2022/03/06 07:14:31;;;;;;;14.00;9.57;;;8.50;83.10;;;;;;5052285;28;20570;-57
2022/03/06 07:16:58;;;;;;;13.57;10.03;;;9.20;81.80;;;;;;5052326;28;20224;-57
2022/03/06 07:19:25;;;;;;;13.13;9.50;;;9.80;78.40;;;;;;5051736;28;20230;-57
2022/03/06 07:21:52;;;;;;;12.30;9.50;;;10.30;76.60;;;;;;5051987;28;20216;-57
2022/03/06 07:24:18;;;;;;;13.83;11.07;;;10.70;74.60;;;;;;5051913;28;20217;-57
2022/03/06 07:26:45;;;;;;;15.13;10.03;;;11.00;73.30;;;;;;5052403;28;20201;-58
2022/03/06 07:29:12;;;;;;;14.60;11.98;;;11.40;71.80;;;;;;5051430;28;20509;-57
2022/03/06 07:31:40;;;;;;;12.00;10.47;;;11.50;70.40;;;;;;5051900;28;20229;-59
2022/03/06 07:34:07;;;;;;;12.43;10.23;;;11.60;69.40;;;;;;5052042;28;20224;-59
2022/03/06 07:36:34;;;;;;;12.87;10.13;;;11.80;69.40;;;;;;5051693;28;20208;-60
2022/03/06 07:39:00;;;;;;;11.57;9.87;;;12.10;68.50;;;;;;5051892;28;20222;-60
2022/03/06 07:41:27;;;;;;;12.47;10.10;;;12.40;67.50;;;;;;5051909;28;20205;-60
2022/03/06 07:43:54;;;;;;;10.70;9.60;;;12.60;66.80;;;;;;5051923;28;20263;-59
2022/03/06 07:46:20;;;;;;;11.33;9.67;;;12.50;65.80;;;;;;5052000;28;20217;-60
2022/03/06 07:48:48;;;;;;;11.63;9.83;;;12.00;66.40;;;;;;5051383;28;20732;-60
2022/03/06 07:51:15;;;;;;;13.00;10.00;;;11.40;67.10;;;;;;5051492;28;20225;-59
2022/03/06 07:53:42;;;;;;;13.43;10.00;;;10.70;68.60;;;;;;5051757;28;20686;-58
2022/03/06 07:56:08;;;;;;;13.73;10.47;;;9.70;71.80;;;;;;5051879;28;20201;-59
2022/03/06 07:58:35;;;;;;;13.13;10.13;;;9.20;73.60;;;;;;5051243;28;20749;-59
2022/03/06 08:01:02;;;;;;;13.27;10.13;;;8.80;74.90;;;;;;5052931;28;20353;-58
2022/03/06 08:03:29;;;;;;;13.13;9.87;;;8.40;75.90;;;;;;5055696;28;20210;-59
2022/03/06 08:05:57;;;;;;;15.10;10.10;;;8.00;76.70;;;;;;5055876;28;20255;-59
2022/03/06 08:08:23;;;;;;;13.20;10.40;;;7.60;78.10;;;;;;5055503;28;20225;-60
2022/03/06 08:10:50;;;;;;;13.53;10.70;;;7.40;78.80;;;;;;5055585;28;20225;-60
2022/03/06 08:13:17;;;;;;;14.10;10.30;;;7.00;80.20;;;;;;5055488;28;20212;-60
2022/03/06 08:15:44;;;;;;;13.90;10.03;;;6.90;81.30;;;;;;5055999;28;20224;-59
2022/03/06 08:18:11;;;;;;;14.07;9.60;;;6.50;81.60;;;;;;5055431;28;20249;-62
2022/03/06 08:20:37;;;;;;;12.07;9.47;;;6.00;83.60;;;;;;5055619;28;20205;-61
2022/03/06 08:23:05;;;;;;;13.53;9.77;;;5.90;84.30;;;;;;5055670;28;20205;-61
2022/03/06 08:25:33;;;;;;;12.90;9.83;;;5.70;84.70;;;;;;5055494;28;20245;-59
2022/03/06 08:27:59;;;;;;;13.87;10.13;;;5.60;84.20;;;;;;5055588;28;20724;-60
2022/03/06 08:30:26;;;;;;;12.53;9.50;;;5.50;84.30;;;;;;5055033;28;20626;-59
2022/03/06 08:32:53;;;;;;;14.97;9.70;;;5.40;84.30;;;;;;5055209;28;20255;-60
2022/03/06 08:35:20;;;;;;;13.90;10.27;;;5.40;84.50;;;;;;5055622;28;20209;-61
2022/03/06 08:37:47;;;;;;;12.60;9.27;;;5.40;85.40;;;;;;5055247;28;20225;-61
2022/03/06 08:40:15;;;;;;;13.23;9.60;;;5.30;85.20;;;;;;5054830;28;20692;-61
2022/03/06 08:42:42;;;;;;;13.33;9.37;;;5.30;85.30;;;;;;5055310;28;20653;-60
2022/03/06 08:45:10;;;;;;;13.77;9.17;;;5.30;85.40;;;;;;5055218;28;20217;-61
2022/03/06 08:47:36;;;;;;;13.77;9.63;;;5.30;85.60;;;;;;5054858;28;20678;-60
2022/03/06 08:50:05;;;;;;;14.40;9.80;;;5.20;85.90;;;;;;5054667;28;20560;-61
2022/03/06 08:52:31;;;;;;;14.07;8.90;;;5.30;85.60;;;;;;5055014;28;20197;-61
2022/03/06 08:54:58;;;;;;;14.40;9.17;;;5.40;85.40;;;;;;5055279;28;20211;-61
2022/03/06 08:57:26;;;;;;;14.23;9.40;;;5.50;86.10;;;;;;5054689;28;20685;-59
2022/03/06 08:59:53;;;;;;;13.70;9.47;;;5.60;85.00;;;;;;5054471;28;20212;-59
2022/03/06 09:02:20;;;;;;;13.93;9.63;;;5.70;84.60;;;;;;5054875;28;20567;-61
2022/03/06 09:04:47;;;;;;;13.90;9.33;;;5.70;84.30;;;;;;5054841;28;20209;-61
2022/03/06 09:07:13;;;;;;;12.70;9.33;;;5.80;85.10;;;;;;5054705;28;20209;-60
2022/03/06 09:09:40;;;;;;;15.57;10.10;;;5.90;84.00;;;;;;5054395;28;20233;-61
2022/03/06 09:12:07;;;;;;;14.87;9.37;;;5.90;83.20;;;;;;5054143;28;20230;-62
2022/03/06 09:14:35;;;;;;;12.60;9.37;;;6.00;83.40;;;;;;5054002;28;20221;-61
2022/03/06 09:17:02;;;;;;;14.57;8.97;;;6.00;82.70;;;;;;5054221;28;20557;-59
2022/03/06 09:19:29;;;;;;;14.00;9.50;;;6.10;81.60;;;;;;5053820;28;20717;-60
2022/03/06 09:21:56;;;;;;;12.50;9.13;;;6.10;81.30;;;;;;5054369;28;20630;-60
2022/03/06 09:24:23;;;;;;;14.87;9.27;;;6.20;80.60;;;;;;5054041;28;20232;-60
2022/03/06 09:26:50;;;;;;;11.77;8.87;;;6.30;81.20;;;;;;5053980;28;20212;-60
2022/03/06 09:29:16;;;;;;;12.40;8.63;;;6.30;80.80;;;;;;5054047;28;20225;-60
2022/03/06 09:31:44;;;;;;;13.60;8.83;;;6.30;80.40;;;;;;5054147;28;20276;-66
2022/03/06 09:34:11;;;;;;;12.20;8.30;;;6.30;79.80;;;;;;5054033;28;20206;-63
2022/03/06 09:36:38;;;;;;;12.50;8.57;;;6.20;79.30;;;;;;5053906;28;20205;-62
2022/03/06 09:39:05;;;;;;;12.93;8.93;;;6.30;79.40;;;;;;5053669;28;20225;-62
2022/03/06 09:41:37;;;;;;;12.47;9.20;;;6.30;79.00;;;;;;5053826;28;20202;-62
2022/03/06 09:44:08;;;;;;;11.67;8.47;;;6.50;78.30;;;;;;5054115;28;20228;-63
2022/03/06 09:46:35;;;;;;;13.40;9.03;;;6.70;78.10;;;;;;5054132;28;20202;-62
2022/03/06 09:49:04;;;;;;;13.00;7.97;;;6.80;77.70;;;;;;5053379;28;20237;-62
2022/03/06 09:51:33;;;;;;;11.63;8.50;;;6.90;74.50;;;;;;5053527;28;20267;-62
2022/03/06 09:54:00;;;;;;;13.10;8.77;;;7.00;74.60;;;;;;5053416;28;20296;-61
2022/03/06 09:56:27;;;;;;;11.70;8.17;;;7.10;74.60;;;;;;5053523;28;20669;-61
2022/03/06 09:58:53;;;;;;;12.60;8.17;;;7.10;73.40;;;;;;5053320;28;20233;-61
2022/03/06 10:01:20;;;;;;;10.57;8.20;;;7.20;72.80;;;;;;5053603;28;20279;-61
2022/03/06 10:03:47;;;;;;;11.10;8.13;;;7.20;72.50;;;;;;5053451;28;20564;-62
2022/03/06 10:06:15;;;;;;;13.40;8.13;;;7.40;72.60;;;;;;5053488;28;20210;-63
2022/03/06 10:08:42;;;;;;;13.23;8.73;;;7.50;72.20;;;;;;5053017;28;20221;-61
2022/03/06 10:11:10;;;;;;;12.03;8.77;;;7.70;70.70;;;;;;5053441;28;20225;-61
2022/03/06 10:13:38;;;;;;;9.93;7.70;;;7.90;69.80;;;;;;5053453;28;20214;-61
2022/03/06 10:16:13;;;;;;;10.70;7.83;;;8.10;68.00;;;;;;5053242;28;20225;-63
2022/03/06 10:18:43;;;;;;;9.97;7.83;;;8.30;67.40;;;;;;5052895;28;20229;-60
2022/03/06 10:21:17;;;;;;;12.87;8.73;;;8.40;66.30;;;;;;5053029;28;20198;-61
2022/03/06 10:23:45;;;;;;;10.60;8.43;;;8.70;67.20;;;;;;5052835;28;20206;-61
2022/03/06 10:26:13;;;;;;;12.30;8.00;;;8.90;67.10;;;;;;5052517;28;20256;-61
2022/03/06 10:28:48;;;;;;;9.87;7.87;;;9.20;65.90;;;;;;5052542;28;20229;-61
2022/03/06 10:31:15;;;;;;;10.63;7.30;;;9.50;64.50;;;;;;5052759;28;20224;-61
2022/03/06 10:33:58;;;;;;;10.00;7.30;;;9.40;64.00;;;;;;5052922;28;20273;-61
2022/03/06 10:36:38;;;;;;;10.03;7.33;;;9.40;63.60;;;;;;5052947;28;20205;-61
2022/03/06 10:39:11;;;;;;;9.80;7.57;;;9.50;63.30;;;;;;5052310;28;20649;-60
2022/03/06 10:41:39;;;;;;;10.47;8.13;;;9.60;62.90;;;;;;5052825;28;20243;-61
2022/03/06 10:44:08;;;;;;;9.70;7.07;;;9.50;63.30;;;;;;5052639;28;20259;-61
2022/03/06 10:46:36;;;;;;;9.00;6.63;;;9.60;62.40;;;;;;5052992;28;20639;-61
2022/03/06 10:49:08;;;;;;;8.33;6.70;;;9.60;62.40;;;;;;5052985;28;20221;-61
2022/03/06 10:51:41;;;;;;;10.73;6.87;;;9.50;61.80;;;;;;5053454;28;20648;-61
2022/03/06 10:54:09;;;;;;;9.63;6.70;;;9.30;62.00;;;;;;5053928;28;20205;-61
2022/03/06 10:56:35;;;;;;;8.97;6.50;;;9.50;62.30;;;;;;5053316;28;20429;-62
2022/03/06 10:59:04;;;;;;;13.50;6.90;;;9.80;62.10;;;;;;5052410;28;20236;-61
2022/03/06 11:01:32;;;;;;;9.97;6.63;;;10.00;59.40;;;;;;5052410;28;20681;-62
2022/03/06 11:04:00;;;;;;;10.00;7.00;;;10.00;59.40;;;;;;5052423;28;20217;-62
2022/03/06 11:06:27;;;;;;;9.67;6.70;;;10.00;59.30;;;;;;5052306;28;20288;-62
2022/03/06 11:08:56;;;;;;;8.90;6.87;;;9.90;59.50;;;;;;5051916;28;20709;-62
2022/03/06 11:11:23;;;;;;;10.53;7.40;;;9.70;59.80;;;;;;5052494;28;20229;-62
2022/03/06 11:13:50;;;;;;;7.83;6.70;;;9.40;60.40;;;;;;5052436;28;20213;-61
2022/03/06 11:16:18;;;;;;;11.03;7.17;;;9.10;61.00;;;;;;5052293;28;20259;-62
2022/03/06 11:18:44;;;;;;;9.73;7.03;;;8.90;61.30;;;;;;5052130;28;20240;-61
2022/03/06 11:21:11;;;;;;;10.40;7.17;;;8.60;61.40;;;;;;5052045;28;20213;-61
2022/03/06 11:23:40;;;;;;;9.33;6.87;;;8.40;62.10;;;;;;5051976;28;20735;-61
2022/03/06 11:26:40;;;;;;;8.67;6.80;;;8.00;62.90;;;;;;5051784;28;20209;-62
2022/03/06 11:29:40;;;;;;;10.57;7.60;;;7.70;64.00;;;;;;5045240;28;20244;-61
2022/03/06 11:32:08;;;;;;;9.33;7.10;;;7.50;64.50;;;;;;5051784;28;20225;-61
2022/03/06 11:34:37;;;;;;;10.03;7.53;;;7.30;64.70;;;;;;5052173;28;20202;-60
2022/03/06 11:37:06;;;;;;;8.93;6.50;;;7.20;64.90;;;;;;5051589;28;20609;-61
2022/03/06 11:39:46;;;;;;;10.83;7.20;;;7.20;65.00;;;;;;5051619;28;20288;-63
2022/03/06 11:42:51;;;;;;;11.27;7.00;;;7.10;65.30;;;;;;5051767;28;20214;-59
2022/03/06 11:45:45;;;;;;;9.93;6.77;;;6.90;64.90;;;;;;5051702;28;20258;-62
2022/03/06 11:48:23;;;;;;;10.40;7.23;;;6.90;65.00;;;;;;5051649;28;20229;-62
2022/03/06 11:51:26;;;;;;;9.20;6.90;;;7.00;65.00;;;;;;5051294;28;20209;-61
2022/03/06 11:53:54;;;;;;;9.60;6.93;;;6.90;65.50;;;;;;5051819;28;20201;-62
2022/03/06 11:56:45;;;;;;;9.40;7.10;;;7.10;65.30;;;;;;5051692;28;20278;-62
2022/03/06 11:59:23;;;;;;;10.53;7.20;;;7.40;64.50;;;;;;5054620;22;20257;-58
2022/03/06 12:01:53;;;;;;;9.20;6.80;;;7.80;63.70;;;;;;5025286;28;20243;-58
2022/03/06 12:04:22;;;;;;;7.83;6.40;;;8.30;62.50;;;;;;5031861;28;20264;-59
2022/03/06 12:06:50;;;;;;;8.60;6.97;;;8.70;61.60;;;;;;5032125;28;20202;-58
2022/03/06 12:09:18;;;;;;;9.57;7.37;;;9.20;61.00;;;;;;5031522;28;20226;-58
2022/03/06 12:11:47;;;;;;;9.47;7.03;;;9.40;59.80;;;;;;5031411;28;20701;-58
2022/03/06 12:14:14;;;;;;;9.23;6.50;;;9.50;59.40;;;;;;5032114;28;20210;-60
2022/03/06 12:17:14;;;;;;;8.07;6.77;;;9.60;59.50;;;;;;5031821;28;20209;-58
2022/03/06 12:20:30;;;;;;;8.10;6.73;;;9.80;59.60;;;;;;5031260;28;20745;-58
2022/03/06 12:23:04;;;;;;;8.07;6.63;;;10.00;58.10;;;;;;5031591;28;20202;-58
2022/03/06 12:25:33;;;;;;;9.20;6.80;;;10.00;57.70;;;;;;5031790;28;20264;-57
2022/03/06 12:28:21;;;;;;;8.93;6.60;;;10.00;57.70;;;;;;5031534;28;20700;-57
2022/03/06 12:30:49;;;;;;;9.47;7.13;;;9.90;58.20;;;;;;5031489;28;20202;-59
2022/03/06 12:33:39;;;;;;;8.93;6.50;;;9.70;58.00;;;;;;5031784;28;20297;-58
2022/03/06 12:36:24;;;;;;;9.77;7.00;;;9.60;58.60;;;;;;5031338;28;20260;-58
2022/03/06 12:39:05;;;;;;;8.73;7.13;;;9.60;59.70;;;;;;5031443;28;20233;-58
2022/03/06 12:41:34;;;;;;;10.93;7.20;;;9.70;59.20;;;;;;5031634;28;20206;-58
2022/03/06 12:44:07;;;;;;;10.23;7.37;;;10.00;57.80;;;;;;5031683;28;20217;-58
2022/03/06 12:46:34;;;;;;;11.07;7.33;;;10.20;57.90;;;;;;5031280;28;20214;-58
2022/03/06 12:49:02;;;;;;;8.93;6.90;;;10.20;56.60;;;;;;5033477;28;20229;-58